sensor_id;sensor_type;location;lat;lon;timestamp;P1;durP1;ratioP1;P2;durP2;ratioP2
8675;SDS011;4375;52.486;13.424;2023-02-15T00:01:36;45.47;;;19.07;;
8675;SDS011;4375;52.486;13.424;2023-02-15T00:04:02;48.27;;;19.37;;
8675;SDS011;4375;52.486;13.424;2023-02-15T00:06:29;48.57;;;18.73;;
8675;SDS011;4375;52.486;13.424;2023-02-15T00:08:55;52.30;;;19.13;;
8675;SDS011;4375;52.486;13.424;2023-02-15T00:11:21;45.93;;;19.07;;
8675;SDS011;4375;52.486;13.424;2023-02-15T00:16:40;49.47;;;18.50;;
8675;SDS011;4375;52.486;13.424;2023-02-15T00:19:08;46.73;;;18.77;;
8675;SDS011;4375;52.486;13.424;2023-02-15T00:21:35;46.57;;;19.40;;
8675;SDS011;4375;52.486;13.424;2023-02-15T00:24:03;53.20;;;19.87;;
8675;SDS011;4375;52.486;13.424;2023-02-15T00:26:30;48.97;;;20.70;;
8675;SDS011;4375;52.486;13.424;2023-02-15T00:28:56;51.57;;;20.20;;
8675;SDS011;4375;52.486;13.424;2023-02-15T00:31:25;51.03;;;18.90;;
8675;SDS011;4375;52.486;13.424;2023-02-15T00:33:52;53.30;;;21.20;;
8675;SDS011;4375;52.486;13.424;2023-02-15T00:36:18;51.07;;;20.90;;
8675;SDS011;4375;52.486;13.424;2023-02-15T00:38:43;60.60;;;21.03;;
8675;SDS011;4375;52.486;13.424;2023-02-15T00:41:09;47.93;;;19.50;;
8675;SDS011;4375;52.486;13.424;2023-02-15T00:43:35;53.87;;;21.27;;
8675;SDS011;4375;52.486;13.424;2023-02-15T00:46:01;47.60;;;19.33;;
8675;SDS011;4375;52.486;13.424;2023-02-15T00:48:28;48.73;;;19.20;;
8675;SDS011;4375;52.486;13.424;2023-02-15T00:50:56;50.60;;;19.70;;
8675;SDS011;4375;52.486;13.424;2023-02-15T00:53:23;48.87;;;19.00;;
8675;SDS011;4375;52.486;13.424;2023-02-15T00:55:49;48.37;;;20.37;;
8675;SDS011;4375;52.486;13.424;2023-02-15T00:58:15;46.73;;;19.10;;
8675;SDS011;4375;52.486;13.424;2023-02-15T01:00:42;53.40;;;20.37;;
8675;SDS011;4375;52.486;13.424;2023-02-15T01:03:11;46.13;;;18.83;;
8675;SDS011;4375;52.486;13.424;2023-02-15T01:05:37;56.77;;;21.10;;
8675;SDS011;4375;52.486;13.424;2023-02-15T01:08:03;51.20;;;21.33;;
8675;SDS011;4375;52.486;13.424;2023-02-15T01:10:29;48.07;;;20.43;;
8675;SDS011;4375;52.486;13.424;2023-02-15T01:12:55;49.97;;;23.30;;
8675;SDS011;4375;52.486;13.424;2023-02-15T01:15:22;53.17;;;20.50;;
8675;SDS011;4375;52.486;13.424;2023-02-15T01:17:48;52.50;;;20.43;;
8675;SDS011;4375;52.486;13.424;2023-02-15T01:20:19;49.67;;;20.20;;
8675;SDS011;4375;52.486;13.424;2023-02-15T01:22:45;46.63;;;20.10;;
8675;SDS011;4375;52.486;13.424;2023-02-15T01:25:11;55.47;;;22.30;;
8675;SDS011;4375;52.486;13.424;2023-02-15T01:27:37;51.47;;;21.93;;
8675;SDS011;4375;52.486;13.424;2023-02-15T01:30:03;57.50;;;21.40;;
8675;SDS011;4375;52.486;13.424;2023-02-15T01:32:29;49.63;;;20.57;;
8675;SDS011;4375;52.486;13.424;2023-02-15T01:34:55;56.60;;;22.60;;
8675;SDS011;4375;52.486;13.424;2023-02-15T01:37:21;48.33;;;20.87;;
8675;SDS011;4375;52.486;13.424;2023-02-15T01:39:47;50.47;;;19.73;;
8675;SDS011;4375;52.486;13.424;2023-02-15T01:42:12;53.80;;;22.17;;
8675;SDS011;4375;52.486;13.424;2023-02-15T01:44:54;52.40;;;21.07;;
8675;SDS011;4375;52.486;13.424;2023-02-15T01:47:29;59.00;;;21.90;;
8675;SDS011;4375;52.486;13.424;2023-02-15T01:50:08;49.87;;;21.80;;
8675;SDS011;4375;52.486;13.424;2023-02-15T01:52:40;59.40;;;24.17;;
8675;SDS011;4375;52.486;13.424;2023-02-15T01:55:16;54.13;;;23.40;;
8675;SDS011;4375;52.486;13.424;2023-02-15T01:57:43;52.80;;;22.83;;
8675;SDS011;4375;52.486;13.424;2023-02-15T02:00:10;55.80;;;23.13;;
8675;SDS011;4375;52.486;13.424;2023-02-15T02:02:36;58.83;;;23.40;;
8675;SDS011;4375;52.486;13.424;2023-02-15T02:05:02;53.67;;;23.33;;
8675;SDS011;4375;52.486;13.424;2023-02-15T02:07:34;53.10;;;22.10;;
8675;SDS011;4375;52.486;13.424;2023-02-15T02:10:03;53.93;;;24.20;;
8675;SDS011;4375;52.486;13.424;2023-02-15T02:12:30;52.20;;;21.10;;
8675;SDS011;4375;52.486;13.424;2023-02-15T02:14:57;57.10;;;22.37;;
8675;SDS011;4375;52.486;13.424;2023-02-15T02:25:46;61.03;;;23.83;;
8675;SDS011;4375;52.486;13.424;2023-02-15T02:36:49;70.40;;;25.70;;
8675;SDS011;4375;52.486;13.424;2023-02-15T02:47:32;79.43;;;27.40;;
8675;SDS011;4375;52.486;13.424;2023-02-15T02:50:06;72.25;;;28.80;;
8675;SDS011;4375;52.486;13.424;2023-02-15T02:55:08;69.65;;;27.20;;
8675;SDS011;4375;52.486;13.424;2023-02-15T03:00:42;80.72;;;30.15;;
8675;SDS011;4375;52.486;13.424;2023-02-15T03:03:18;74.30;;;28.27;;
8675;SDS011;4375;52.486;13.424;2023-02-15T03:05:58;82.18;;;29.40;;
8675;SDS011;4375;52.486;13.424;2023-02-15T03:08:28;83.18;;;30.40;;
8675;SDS011;4375;52.486;13.424;2023-02-15T03:11:02;74.53;;;26.45;;
8675;SDS011;4375;52.486;13.424;2023-02-15T03:13:29;86.45;;;30.15;;
8675;SDS011;4375;52.486;13.424;2023-02-15T03:15:55;67.60;;;27.17;;
8675;SDS011;4375;52.486;13.424;2023-02-15T03:18:43;68.43;;;28.05;;
8675;SDS011;4375;52.486;13.424;2023-02-15T03:21:27;70.05;;;26.13;;
8675;SDS011;4375;52.486;13.424;2023-02-15T03:24:07;74.63;;;26.60;;
8675;SDS011;4375;52.486;13.424;2023-02-15T03:26:38;75.45;;;28.30;;
8675;SDS011;4375;52.486;13.424;2023-02-15T03:29:05;81.47;;;28.27;;
8675;SDS011;4375;52.486;13.424;2023-02-15T03:31:33;68.55;;;26.35;;
8675;SDS011;4375;52.486;13.424;2023-02-15T03:34:10;81.93;;;27.40;;
8675;SDS011;4375;52.486;13.424;2023-02-15T03:44:59;70.70;;;26.92;;
8675;SDS011;4375;52.486;13.424;2023-02-15T03:47:37;70.05;;;23.95;;
8675;SDS011;4375;52.486;13.424;2023-02-15T03:50:13;74.72;;;28.75;;
8675;SDS011;4375;52.486;13.424;2023-02-15T03:53:05;75.30;;;27.00;;
8675;SDS011;4375;52.486;13.424;2023-02-15T03:55:34;70.15;;;25.10;;
8675;SDS011;4375;52.486;13.424;2023-02-15T03:58:01;76.60;;;28.38;;
8675;SDS011;4375;52.486;13.424;2023-02-15T04:00:52;70.40;;;26.67;;
8675;SDS011;4375;52.486;13.424;2023-02-15T04:04:03;71.93;;;25.73;;
8675;SDS011;4375;52.486;13.424;2023-02-15T04:06:37;67.60;;;25.70;;
8675;SDS011;4375;52.486;13.424;2023-02-15T04:09:02;63.60;;;24.90;;
8675;SDS011;4375;52.486;13.424;2023-02-15T04:11:47;67.90;;;25.63;;
8675;SDS011;4375;52.486;13.424;2023-02-15T04:14:12;68.90;;;26.67;;
8675;SDS011;4375;52.486;13.424;2023-02-15T04:16:57;71.28;;;26.30;;
8675;SDS011;4375;52.486;13.424;2023-02-15T04:19:22;68.67;;;26.03;;
8675;SDS011;4375;52.486;13.424;2023-02-15T04:22:06;75.50;;;28.42;;
8675;SDS011;4375;52.486;13.424;2023-02-15T04:24:50;72.38;;;26.92;;
8675;SDS011;4375;52.486;13.424;2023-02-15T04:27:34;68.78;;;27.70;;
8675;SDS011;4375;52.486;13.424;2023-02-15T04:30:00;71.43;;;25.10;;
8675;SDS011;4375;52.486;13.424;2023-02-15T04:32:26;71.00;;;27.00;;
8675;SDS011;4375;52.486;13.424;2023-02-15T04:34:52;66.38;;;24.75;;
8675;SDS011;4375;52.486;13.424;2023-02-15T04:37:18;71.67;;;26.00;;
8675;SDS011;4375;52.486;13.424;2023-02-15T04:39:43;83.43;;;24.40;;
8675;SDS011;4375;52.486;13.424;2023-02-15T04:42:09;69.43;;;25.10;;
8675;SDS011;4375;52.486;13.424;2023-02-15T04:44:34;68.80;;;26.70;;
8675;SDS011;4375;52.486;13.424;2023-02-15T04:47:00;68.00;;;25.73;;
8675;SDS011;4375;52.486;13.424;2023-02-15T04:49:25;71.90;;;26.17;;
8675;SDS011;4375;52.486;13.424;2023-02-15T04:51:51;70.40;;;26.37;;
8675;SDS011;4375;52.486;13.424;2023-02-15T04:54:17;67.37;;;25.13;;
8675;SDS011;4375;52.486;13.424;2023-02-15T04:56:42;78.27;;;28.30;;
8675;SDS011;4375;52.486;13.424;2023-02-15T04:59:11;75.70;;;28.43;;
8675;SDS011;4375;52.486;13.424;2023-02-15T05:01:37;70.88;;;27.15;;
8675;SDS011;4375;52.486;13.424;2023-02-15T05:04:03;65.53;;;25.50;;
8675;SDS011;4375;52.486;13.424;2023-02-15T05:06:29;61.80;;;23.80;;
8675;SDS011;4375;52.486;13.424;2023-02-15T05:08:54;71.97;;;27.20;;
8675;SDS011;4375;52.486;13.424;2023-02-15T05:11:20;72.83;;;27.40;;
8675;SDS011;4375;52.486;13.424;2023-02-15T05:13:46;73.73;;;25.27;;
8675;SDS011;4375;52.486;13.424;2023-02-15T05:16:11;71.23;;;25.23;;
8675;SDS011;4375;52.486;13.424;2023-02-15T05:18:37;67.20;;;26.00;;
8675;SDS011;4375;52.486;13.424;2023-02-15T05:21:03;65.70;;;24.50;;
8675;SDS011;4375;52.486;13.424;2023-02-15T05:23:29;65.93;;;24.40;;
8675;SDS011;4375;52.486;13.424;2023-02-15T05:25:54;67.20;;;25.40;;
8675;SDS011;4375;52.486;13.424;2023-02-15T05:28:39;71.85;;;27.08;;
8675;SDS011;4375;52.486;13.424;2023-02-15T05:33:35;68.72;;;27.15;;
8675;SDS011;4375;52.486;13.424;2023-02-15T05:36:01;69.17;;;26.10;;
8675;SDS011;4375;52.486;13.424;2023-02-15T05:38:28;72.15;;;24.73;;
8675;SDS011;4375;52.486;13.424;2023-02-15T05:40:54;77.40;;;30.10;;
8675;SDS011;4375;52.486;13.424;2023-02-15T05:43:19;71.63;;;28.40;;
8675;SDS011;4375;52.486;13.424;2023-02-15T05:45:46;80.73;;;29.13;;
8675;SDS011;4375;52.486;13.424;2023-02-15T05:48:13;72.50;;;28.65;;
8675;SDS011;4375;52.486;13.424;2023-02-15T05:50:39;69.72;;;25.55;;
8675;SDS011;4375;52.486;13.424;2023-02-15T05:53:04;74.60;;;30.07;;
8675;SDS011;4375;52.486;13.424;2023-02-15T05:55:30;77.30;;;26.77;;
8675;SDS011;4375;52.486;13.424;2023-02-15T05:57:56;81.33;;;29.43;;
8675;SDS011;4375;52.486;13.424;2023-02-15T06:00:21;89.10;;;28.77;;
8675;SDS011;4375;52.486;13.424;2023-02-15T06:02:47;80.97;;;27.80;;
8675;SDS011;4375;52.486;13.424;2023-02-15T06:05:15;79.07;;;28.57;;
8675;SDS011;4375;52.486;13.424;2023-02-15T06:07:42;75.43;;;28.27;;
8675;SDS011;4375;52.486;13.424;2023-02-15T06:10:09;81.38;;;30.75;;
8675;SDS011;4375;52.486;13.424;2023-02-15T06:12:35;78.00;;;28.40;;
8675;SDS011;4375;52.486;13.424;2023-02-15T06:15:00;100.23;;;29.07;;
8675;SDS011;4375;52.486;13.424;2023-02-15T06:17:26;88.87;;;31.87;;
8675;SDS011;4375;52.486;13.424;2023-02-15T06:19:52;87.33;;;28.93;;
8675;SDS011;4375;52.486;13.424;2023-02-15T06:22:17;78.03;;;28.10;;
8675;SDS011;4375;52.486;13.424;2023-02-15T06:24:43;82.87;;;31.03;;
8675;SDS011;4375;52.486;13.424;2023-02-15T06:27:09;79.73;;;30.93;;
8675;SDS011;4375;52.486;13.424;2023-02-15T06:29:35;77.95;;;28.33;;
8675;SDS011;4375;52.486;13.424;2023-02-15T06:32:00;79.27;;;27.60;;
8675;SDS011;4375;52.486;13.424;2023-02-15T06:34:26;85.70;;;29.73;;
8675;SDS011;4375;52.486;13.424;2023-02-15T06:36:52;76.23;;;26.73;;
8675;SDS011;4375;52.486;13.424;2023-02-15T06:39:17;89.47;;;30.30;;
8675;SDS011;4375;52.486;13.424;2023-02-15T06:41:43;76.43;;;28.07;;
8675;SDS011;4375;52.486;13.424;2023-02-15T06:44:08;86.10;;;28.70;;
8675;SDS011;4375;52.486;13.424;2023-02-15T06:46:34;85.00;;;28.20;;
8675;SDS011;4375;52.486;13.424;2023-02-15T06:48:59;98.90;;;28.33;;
8675;SDS011;4375;52.486;13.424;2023-02-15T06:51:25;92.07;;;27.83;;
8675;SDS011;4375;52.486;13.424;2023-02-15T06:53:51;91.87;;;27.10;;
8675;SDS011;4375;52.486;13.424;2023-02-15T06:56:16;72.63;;;26.90;;
8675;SDS011;4375;52.486;13.424;2023-02-15T06:58:42;78.70;;;27.63;;
8675;SDS011;4375;52.486;13.424;2023-02-15T07:01:08;79.40;;;27.00;;
8675;SDS011;4375;52.486;13.424;2023-02-15T07:03:34;90.90;;;29.58;;
8675;SDS011;4375;52.486;13.424;2023-02-15T07:06:01;87.70;;;28.10;;
8675;SDS011;4375;52.486;13.424;2023-02-15T07:08:30;82.63;;;28.58;;
8675;SDS011;4375;52.486;13.424;2023-02-15T07:10:56;89.10;;;30.30;;
8675;SDS011;4375;52.486;13.424;2023-02-15T07:13:45;82.78;;;29.38;;
8675;SDS011;4375;52.486;13.424;2023-02-15T07:16:11;92.68;;;28.45;;
8675;SDS011;4375;52.486;13.424;2023-02-15T07:18:37;118.68;;;29.10;;
8675;SDS011;4375;52.486;13.424;2023-02-15T07:21:04;84.85;;;29.25;;
8675;SDS011;4375;52.486;13.424;2023-02-15T07:23:33;79.20;;;25.77;;
8675;SDS011;4375;52.486;13.424;2023-02-15T07:26:02;80.30;;;27.45;;
8675;SDS011;4375;52.486;13.424;2023-02-15T07:28:28;85.55;;;28.02;;
8675;SDS011;4375;52.486;13.424;2023-02-15T07:30:54;95.03;;;27.50;;
8675;SDS011;4375;52.486;13.424;2023-02-15T07:33:20;75.97;;;26.17;;
8675;SDS011;4375;52.486;13.424;2023-02-15T07:35:58;70.38;;;25.58;;
8675;SDS011;4375;52.486;13.424;2023-02-15T07:38:25;77.32;;;28.83;;
8675;SDS011;4375;52.486;13.424;2023-02-15T07:40:57;73.20;;;27.13;;
8675;SDS011;4375;52.486;13.424;2023-02-15T07:43:24;86.30;;;28.08;;
8675;SDS011;4375;52.486;13.424;2023-02-15T07:45:49;102.80;;;29.77;;
8675;SDS011;4375;52.486;13.424;2023-02-15T07:48:15;70.83;;;26.03;;
8675;SDS011;4375;52.486;13.424;2023-02-15T07:50:43;85.63;;;27.80;;
8675;SDS011;4375;52.486;13.424;2023-02-15T07:53:14;81.07;;;26.83;;
8675;SDS011;4375;52.486;13.424;2023-02-15T07:55:40;75.90;;;26.27;;
8675;SDS011;4375;52.486;13.424;2023-02-15T07:58:06;72.77;;;25.57;;
8675;SDS011;4375;52.486;13.424;2023-02-15T08:00:31;73.50;;;26.47;;
8675;SDS011;4375;52.486;13.424;2023-02-15T08:03:17;73.95;;;25.60;;
8675;SDS011;4375;52.486;13.424;2023-02-15T08:05:43;79.70;;;29.33;;
8675;SDS011;4375;52.486;13.424;2023-02-15T08:08:09;77.82;;;26.17;;
8675;SDS011;4375;52.486;13.424;2023-02-15T08:11:00;77.43;;;26.48;;
8675;SDS011;4375;52.486;13.424;2023-02-15T08:14:04;83.18;;;26.25;;
8675;SDS011;4375;52.486;13.424;2023-02-15T08:19:08;75.78;;;25.40;;
8675;SDS011;4375;52.486;13.424;2023-02-15T08:21:37;71.50;;;25.63;;
8675;SDS011;4375;52.486;13.424;2023-02-15T08:24:07;70.95;;;24.65;;
8675;SDS011;4375;52.486;13.424;2023-02-15T08:26:34;67.05;;;23.33;;
8675;SDS011;4375;52.486;13.424;2023-02-15T08:29:00;69.43;;;22.63;;
8675;SDS011;4375;52.486;13.424;2023-02-15T08:31:27;77.68;;;25.70;;
8675;SDS011;4375;52.486;13.424;2023-02-15T08:33:54;70.30;;;24.05;;
8675;SDS011;4375;52.486;13.424;2023-02-15T08:36:22;81.28;;;27.02;;
8675;SDS011;4375;52.486;13.424;2023-02-15T08:38:49;82.50;;;24.08;;
8675;SDS011;4375;52.486;13.424;2023-02-15T08:41:16;81.23;;;24.47;;
8675;SDS011;4375;52.486;13.424;2023-02-15T08:43:44;68.80;;;24.38;;
8675;SDS011;4375;52.486;13.424;2023-02-15T08:46:11;65.00;;;21.65;;
8675;SDS011;4375;52.486;13.424;2023-02-15T08:48:37;61.53;;;22.23;;
8675;SDS011;4375;52.486;13.424;2023-02-15T08:51:05;67.82;;;22.63;;
8675;SDS011;4375;52.486;13.424;2023-02-15T08:53:41;66.22;;;22.00;;
8675;SDS011;4375;52.486;13.424;2023-02-15T08:56:09;72.63;;;24.40;;
8675;SDS011;4375;52.486;13.424;2023-02-15T08:58:35;66.47;;;24.23;;
8675;SDS011;4375;52.486;13.424;2023-02-15T09:01:01;63.13;;;24.10;;
8675;SDS011;4375;52.486;13.424;2023-02-15T09:03:34;63.13;;;23.55;;
8675;SDS011;4375;52.486;13.424;2023-02-15T09:05:59;64.73;;;25.10;;
8675;SDS011;4375;52.486;13.424;2023-02-15T09:08:26;71.22;;;26.55;;
8675;SDS011;4375;52.486;13.424;2023-02-15T09:10:53;64.00;;;22.85;;
8675;SDS011;4375;52.486;13.424;2023-02-15T09:13:19;65.37;;;24.87;;
8675;SDS011;4375;52.486;13.424;2023-02-15T09:15:45;64.60;;;22.85;;
8675;SDS011;4375;52.486;13.424;2023-02-15T09:18:11;58.97;;;23.37;;
8675;SDS011;4375;52.486;13.424;2023-02-15T09:20:41;66.95;;;22.83;;
8675;SDS011;4375;52.486;13.424;2023-02-15T09:23:08;56.83;;;22.13;;
8675;SDS011;4375;52.486;13.424;2023-02-15T09:25:34;59.33;;;22.57;;
8675;SDS011;4375;52.486;13.424;2023-02-15T09:27:59;56.93;;;21.53;;
8675;SDS011;4375;52.486;13.424;2023-02-15T09:30:25;61.83;;;22.40;;
8675;SDS011;4375;52.486;13.424;2023-02-15T09:32:51;56.57;;;21.50;;
8675;SDS011;4375;52.486;13.424;2023-02-15T09:35:16;50.50;;;21.30;;
8675;SDS011;4375;52.486;13.424;2023-02-15T09:37:42;59.87;;;21.60;;
8675;SDS011;4375;52.486;13.424;2023-02-15T09:40:08;53.97;;;22.03;;
8675;SDS011;4375;52.486;13.424;2023-02-15T09:42:54;51.40;;;20.88;;
8675;SDS011;4375;52.486;13.424;2023-02-15T09:45:36;63.53;;;21.67;;
8675;SDS011;4375;52.486;13.424;2023-02-15T09:48:29;57.30;;;20.97;;
8675;SDS011;4375;52.486;13.424;2023-02-15T09:58:57;49.93;;;21.13;;
8675;SDS011;4375;52.486;13.424;2023-02-15T10:06:47;54.63;;;21.30;;
8675;SDS011;4375;52.486;13.424;2023-02-15T10:09:28;50.50;;;21.00;;
8675;SDS011;4375;52.486;13.424;2023-02-15T10:31:23;59.37;;;23.47;;
8675;SDS011;4375;52.486;13.424;2023-02-15T10:48:21;57.20;;;21.87;;
8675;SDS011;4375;52.486;13.424;2023-02-15T10:50:59;61.00;;;21.47;;
8675;SDS011;4375;52.486;13.424;2023-02-15T10:53:43;49.60;;;20.57;;
8675;SDS011;4375;52.486;13.424;2023-02-15T10:56:38;51.97;;;20.03;;
8675;SDS011;4375;52.486;13.424;2023-02-15T10:59:24;51.70;;;20.83;;
8675;SDS011;4375;52.486;13.424;2023-02-15T11:02:23;58.70;;;23.80;;
8675;SDS011;4375;52.486;13.424;2023-02-15T11:07:49;55.73;;;22.17;;
8675;SDS011;4375;52.486;13.424;2023-02-15T11:10:30;54.20;;;22.03;;
8675;SDS011;4375;52.486;13.424;2023-02-15T11:12:57;54.63;;;21.40;;
8675;SDS011;4375;52.486;13.424;2023-02-15T11:18:58;55.23;;;21.37;;
8675;SDS011;4375;52.486;13.424;2023-02-15T11:21:36;54.53;;;21.57;;
8675;SDS011;4375;52.486;13.424;2023-02-15T11:24:09;55.37;;;22.57;;
8675;SDS011;4375;52.486;13.424;2023-02-15T11:30:13;59.90;;;21.63;;
8675;SDS011;4375;52.486;13.424;2023-02-15T11:33:01;52.63;;;21.93;;
8675;SDS011;4375;52.486;13.424;2023-02-15T11:42:00;55.97;;;21.30;;
8675;SDS011;4375;52.486;13.424;2023-02-15T11:44:58;53.87;;;21.03;;
8675;SDS011;4375;52.486;13.424;2023-02-15T11:47:57;51.27;;;21.23;;
8675;SDS011;4375;52.486;13.424;2023-02-15T11:50:28;55.77;;;21.40;;
8675;SDS011;4375;52.486;13.424;2023-02-15T11:53:01;53.10;;;20.73;;
8675;SDS011;4375;52.486;13.424;2023-02-15T11:55:50;52.43;;;20.87;;
8675;SDS011;4375;52.486;13.424;2023-02-15T12:01:28;47.33;;;20.80;;
8675;SDS011;4375;52.486;13.424;2023-02-15T12:04:02;51.17;;;21.80;;
8675;SDS011;4375;52.486;13.424;2023-02-15T12:06:33;62.63;;;21.60;;
8675;SDS011;4375;52.486;13.424;2023-02-15T12:09:13;48.00;;;20.20;;
8675;SDS011;4375;52.486;13.424;2023-02-15T12:11:49;52.07;;;23.00;;
8675;SDS011;4375;52.486;13.424;2023-02-15T12:14:15;52.57;;;23.50;;
8675;SDS011;4375;52.486;13.424;2023-02-15T12:16:48;54.17;;;19.60;;
8675;SDS011;4375;52.486;13.424;2023-02-15T12:19:28;45.20;;;20.73;;
8675;SDS011;4375;52.486;13.424;2023-02-15T12:21:58;44.17;;;19.77;;
8675;SDS011;4375;52.486;13.424;2023-02-15T12:24:27;52.77;;;21.43;;
8675;SDS011;4375;52.486;13.424;2023-02-15T12:29:39;47.27;;;20.30;;
8675;SDS011;4375;52.486;13.424;2023-02-15T12:32:11;51.60;;;20.70;;
8675;SDS011;4375;52.486;13.424;2023-02-15T12:34:52;48.30;;;20.00;;
8675;SDS011;4375;52.486;13.424;2023-02-15T12:37:25;65.10;;;23.60;;
8675;SDS011;4375;52.486;13.424;2023-02-15T12:40:00;51.70;;;20.70;;
8675;SDS011;4375;52.486;13.424;2023-02-15T12:42:28;48.03;;;20.80;;
8675;SDS011;4375;52.486;13.424;2023-02-15T12:45:21;44.33;;;19.57;;
8675;SDS011;4375;52.486;13.424;2023-02-15T12:53:19;41.33;;;18.83;;
8675;SDS011;4375;52.486;13.424;2023-02-15T12:55:57;48.00;;;20.17;;
8675;SDS011;4375;52.486;13.424;2023-02-15T12:58:29;47.47;;;20.00;;
8675;SDS011;4375;52.486;13.424;2023-02-15T13:03:35;44.90;;;20.33;;
8675;SDS011;4375;52.486;13.424;2023-02-15T13:06:02;50.13;;;19.90;;
8675;SDS011;4375;52.486;13.424;2023-02-15T13:08:34;47.13;;;19.70;;
8675;SDS011;4375;52.486;13.424;2023-02-15T13:11:11;43.47;;;20.10;;
8675;SDS011;4375;52.486;13.424;2023-02-15T13:13:56;44.83;;;19.13;;
8675;SDS011;4375;52.486;13.424;2023-02-15T13:16:27;47.90;;;20.33;;
8675;SDS011;4375;52.486;13.424;2023-02-15T13:19:06;47.07;;;18.73;;
8675;SDS011;4375;52.486;13.424;2023-02-15T13:21:38;47.40;;;19.40;;
8675;SDS011;4375;52.486;13.424;2023-02-15T13:24:10;43.67;;;19.30;;
8675;SDS011;4375;52.486;13.424;2023-02-15T13:26:48;43.87;;;19.27;;
8675;SDS011;4375;52.486;13.424;2023-02-15T13:29:18;46.50;;;19.20;;
8675;SDS011;4375;52.486;13.424;2023-02-15T13:31:49;44.90;;;19.47;;
8675;SDS011;4375;52.486;13.424;2023-02-15T13:34:17;47.83;;;19.20;;
8675;SDS011;4375;52.486;13.424;2023-02-15T13:37:15;50.30;;;19.40;;
8675;SDS011;4375;52.486;13.424;2023-02-15T13:39:49;45.13;;;19.90;;
8675;SDS011;4375;52.486;13.424;2023-02-15T13:53:20;48.40;;;19.20;;
8675;SDS011;4375;52.486;13.424;2023-02-15T13:56:24;49.10;;;19.30;;
8675;SDS011;4375;52.486;13.424;2023-02-15T14:05:14;39.43;;;17.10;;
8675;SDS011;4375;52.486;13.424;2023-02-15T14:10:45;41.83;;;17.53;;
8675;SDS011;4375;52.486;13.424;2023-02-15T14:13:32;41.47;;;16.90;;
8675;SDS011;4375;52.486;13.424;2023-02-15T14:16:54;48.80;;;18.07;;
8675;SDS011;4375;52.486;13.424;2023-02-15T14:21:34;40.30;;;16.97;;
8675;SDS011;4375;52.486;13.424;2023-02-15T14:29:59;44.47;;;18.10;;
8675;SDS011;4375;52.486;13.424;2023-02-15T14:32:35;51.60;;;17.90;;
8675;SDS011;4375;52.486;13.424;2023-02-15T14:35:09;42.47;;;17.20;;
8675;SDS011;4375;52.486;13.424;2023-02-15T14:43:22;43.63;;;20.60;;
8675;SDS011;4375;52.486;13.424;2023-02-15T14:45:56;41.40;;;18.20;;
8675;SDS011;4375;52.486;13.424;2023-02-15T14:48:30;50.87;;;20.50;;
8675;SDS011;4375;52.486;13.424;2023-02-15T14:50:58;40.60;;;17.60;;
8675;SDS011;4375;52.486;13.424;2023-02-15T14:56:20;45.60;;;18.50;;
8675;SDS011;4375;52.486;13.424;2023-02-15T15:01:15;41.67;;;16.70;;
8675;SDS011;4375;52.486;13.424;2023-02-15T15:03:49;43.50;;;17.20;;
8675;SDS011;4375;52.486;13.424;2023-02-15T15:06:26;52.93;;;17.07;;
8675;SDS011;4375;52.486;13.424;2023-02-15T15:14:04;38.37;;;16.93;;
8675;SDS011;4375;52.486;13.424;2023-02-15T15:19:02;42.93;;;16.37;;
8675;SDS011;4375;52.486;13.424;2023-02-15T15:49:23;45.33;;;16.70;;
8675;SDS011;4375;52.486;13.424;2023-02-15T15:51:53;40.03;;;16.13;;
8675;SDS011;4375;52.486;13.424;2023-02-15T15:54:28;39.33;;;16.10;;
8675;SDS011;4375;52.486;13.424;2023-02-15T15:56:57;34.70;;;16.43;;
8675;SDS011;4375;52.486;13.424;2023-02-15T15:59:26;38.20;;;16.07;;
8675;SDS011;4375;52.486;13.424;2023-02-15T16:01:54;42.27;;;17.37;;
8675;SDS011;4375;52.486;13.424;2023-02-15T16:06:55;41.43;;;17.67;;
8675;SDS011;4375;52.486;13.424;2023-02-15T16:09:23;38.27;;;17.47;;
8675;SDS011;4375;52.486;13.424;2023-02-15T16:11:55;47.20;;;18.13;;
8675;SDS011;4375;52.486;13.424;2023-02-15T16:14:30;44.27;;;16.57;;
8675;SDS011;4375;52.486;13.424;2023-02-15T16:17:00;44.07;;;17.97;;
8675;SDS011;4375;52.486;13.424;2023-02-15T16:19:30;45.40;;;18.10;;
8675;SDS011;4375;52.486;13.424;2023-02-15T16:21:59;43.30;;;19.00;;
8675;SDS011;4375;52.486;13.424;2023-02-15T16:32:48;50.30;;;18.23;;
8675;SDS011;4375;52.486;13.424;2023-02-15T16:35:17;43.80;;;18.03;;
8675;SDS011;4375;52.486;13.424;2023-02-15T16:37:44;41.77;;;17.60;;
8675;SDS011;4375;52.486;13.424;2023-02-15T16:42:49;42.47;;;18.60;;
8675;SDS011;4375;52.486;13.424;2023-02-15T16:45:26;41.50;;;17.23;;
8675;SDS011;4375;52.486;13.424;2023-02-15T16:47:53;38.23;;;15.77;;
8675;SDS011;4375;52.486;13.424;2023-02-15T16:50:23;44.00;;;18.57;;
8675;SDS011;4375;52.486;13.424;2023-02-15T16:52:54;44.27;;;19.17;;
8675;SDS011;4375;52.486;13.424;2023-02-15T16:55:22;41.27;;;18.60;;
8675;SDS011;4375;52.486;13.424;2023-02-15T16:57:49;44.97;;;19.57;;
8675;SDS011;4375;52.486;13.424;2023-02-15T17:00:20;47.77;;;17.83;;
8675;SDS011;4375;52.486;13.424;2023-02-15T17:05:30;51.10;;;20.60;;
8675;SDS011;4375;52.486;13.424;2023-02-15T17:13:24;41.60;;;18.93;;
8675;SDS011;4375;52.486;13.424;2023-02-15T17:18:23;47.23;;;19.63;;
8675;SDS011;4375;52.486;13.424;2023-02-15T17:20:52;40.30;;;17.60;;
8675;SDS011;4375;52.486;13.424;2023-02-15T17:23:30;48.10;;;19.67;;
8675;SDS011;4375;52.486;13.424;2023-02-15T17:25:58;42.60;;;17.50;;
8675;SDS011;4375;52.486;13.424;2023-02-15T17:28:29;46.40;;;19.33;;
8675;SDS011;4375;52.486;13.424;2023-02-15T17:30:56;92.37;;;48.13;;
8675;SDS011;4375;52.486;13.424;2023-02-15T17:33:24;120.27;;;56.13;;
8675;SDS011;4375;52.486;13.424;2023-02-15T17:38:33;44.47;;;19.10;;
8675;SDS011;4375;52.486;13.424;2023-02-15T17:41:00;50.80;;;21.43;;
8675;SDS011;4375;52.486;13.424;2023-02-15T17:43:26;48.27;;;22.80;;
8675;SDS011;4375;52.486;13.424;2023-02-15T17:45:51;45.80;;;21.20;;
8675;SDS011;4375;52.486;13.424;2023-02-15T17:48:27;51.93;;;22.10;;
8675;SDS011;4375;52.486;13.424;2023-02-15T17:50:57;43.97;;;20.10;;
8675;SDS011;4375;52.486;13.424;2023-02-15T17:53:25;44.57;;;19.00;;
8675;SDS011;4375;52.486;13.424;2023-02-15T17:55:51;44.37;;;19.10;;
8675;SDS011;4375;52.486;13.424;2023-02-15T17:58:17;49.50;;;19.77;;
8675;SDS011;4375;52.486;13.424;2023-02-15T18:00:45;49.60;;;21.10;;
8675;SDS011;4375;52.486;13.424;2023-02-15T18:06:29;50.20;;;21.80;;
8675;SDS011;4375;52.486;13.424;2023-02-15T18:09:14;46.93;;;22.00;;
8675;SDS011;4375;52.486;13.424;2023-02-15T18:12:00;55.57;;;24.63;;
8675;SDS011;4375;52.486;13.424;2023-02-15T18:14:27;50.60;;;23.03;;
8675;SDS011;4375;52.486;13.424;2023-02-15T18:16:52;51.40;;;23.50;;
8675;SDS011;4375;52.486;13.424;2023-02-15T18:19:23;51.03;;;21.97;;
8675;SDS011;4375;52.486;13.424;2023-02-15T18:21:50;48.57;;;23.00;;
8675;SDS011;4375;52.486;13.424;2023-02-15T18:24:20;51.97;;;23.20;;
8675;SDS011;4375;52.486;13.424;2023-02-15T18:26:48;46.47;;;21.63;;
8675;SDS011;4375;52.486;13.424;2023-02-15T18:29:14;53.00;;;23.90;;
8675;SDS011;4375;52.486;13.424;2023-02-15T18:31:40;47.03;;;22.07;;
8675;SDS011;4375;52.486;13.424;2023-02-15T18:34:09;46.40;;;21.67;;
8675;SDS011;4375;52.486;13.424;2023-02-15T18:36:51;43.97;;;20.83;;
8675;SDS011;4375;52.486;13.424;2023-02-15T18:39:25;46.87;;;20.90;;
8675;SDS011;4375;52.486;13.424;2023-02-15T18:42:05;37.67;;;16.10;;
8675;SDS011;4375;52.486;13.424;2023-02-15T18:44:37;36.13;;;16.13;;